Airfield :
LOGIN :

Register | Disclaimer

   EN    FR    IT 

 










Legend :    VFR   Marginal VFR   IFR   Intensive IFR   Very Intensive IFR
Visi :
Ceiling :
>= 8 km
>= 3000ft
5 to 8 km
1000 to 3000 ft
1500m to 5 km
500 to 1000 ft
800 to 1500m
200 to 500 ft
< 800m
< 200 ft
Symbols :   Thunderstorms  Fog  Heavy snow  Heavy precipitations  Wind > 20 kt
SIGMETs :     Misc.  Thunderstorms  Icing  Turbulence  Mountain Waves  Volcanic Ashes






- Airport Elevation : 640 ft
- IATA code : AOC


EDAC - Altenburg-Nobitz

CURRENT METAR :
  • 280450Z AUTO 33004KT 4700 // OVC004/// 03/03 Q1019

EXPIRED METARs :
  • 280420Z AUTO 34005KT 1800 // FEW001/// OVC003/// 03/03 Q1019
  • 280350Z AUTO 33005KT 2600 // OVC002/// 03/03 Q1018
  • 280320Z AUTO 33007KT 1800 // OVC002/// 03/03 Q1018
  • 280250Z AUTO 33007KT 1400 R22/2000U // SCT002/// OVC004/// 04/03 Q1018
  • 280220Z AUTO 32006KT 0750 R22/1300D // SCT002/// OVC004/// 04/04 Q1018
  • 280150Z AUTO 33005KT 0900 R22/1600U // SCT002/// OVC004/// 04/04 Q1018
  • 280120Z AUTO 35003KT 2200 // OVC002/// 04/04 Q1018
  • 280050Z AUTO 36003KT 2300 // OVC002/// 04/04 Q1018
  • 280020Z AUTO 35005KT 1200 R22/P2000N // BKN002/// OVC005/// 04/04 Q1018

Expired Forecast.



MET'MAP, your aeronautical weather chart ! - Copyright ORBIFLY December 2007 - Disclaimer

ORBIFLY MET'MAP TEAM :

Programming & Development : Alexandra Zaïnal
Original concept : Baudouin d'Aumeries
Technical & hardware support : Manuel Goepfert
Assistance : Marc-Olivier Méhu




SOURCES & CREDITS :

   NOAA